Dyess Air Force Base
KDYS : now visible

Airfield :











YOU CAN JOIN US ON...

 
LOGIN :

Register | Disclaimer

   EN    FR    IT 

 









Legend :    VFR   Marginal VFR   IFR   Intensive IFR   Very Intensive IFR
Visi :
Ceiling :
>= 8 km
>= 3000ft
5 to 8 km
1000 to 3000 ft
1500m to 5 km
500 to 1000 ft
800 to 1500m
200 to 500 ft
< 800m
< 200 ft
Symbols :   Thunderstorms  Fog  Heavy snow  Heavy precipitations  Wind > 20 kt






- Airport Elevation : 1789 ft


KDYS - Dyess Air Force Base

CURRENT METAR :
  • 300756Z AUTO 34009KT 10SM CLR 02/M06 A3047 RMK AO2 SLP325 T00191064 $

EXPIRED METARs :
  • 300656Z AUTO 33009KT 10SM CLR 02/M04 A3046 RMK AO2 SLP321 T00231038 $
  • 300556Z AUTO 35010KT 10SM CLR 04/M04 A3045 RMK AO2 SLP315 T00371038 10087 20037 400910037 52025 $

TAF TAF KDYS
Valid from the 29 at 22:00 until the 01 at 04:00 UTC


292200Z 2922/0104 33010G15KT 9999 OVC030 QNH3025INS
BECMG 2923/2924 35009KT 9999 BKN025 QNH3027INS
BECMG 3002/3003 35009KT 9999 SKC QNH3027INS TX09/3022Z TN00/3014Z LAST NO AMDS AFT 2923 NEXT 3012
KZFW FIR / North America



MET'MAP, your aeronautical weather chart ! - Copyright ORBIFLY December 2007 - Disclaimer

ORBIFLY MET'MAP TEAM :

Programming & Development : Alexandra Zaïnal
Concept & original design : Baudouin d'Aumeries
Assistance for programming : Marc-Olivier Méhu
Technical & hardware support : Manuel Goepfert

Contact : metmap@orbifly.com




SOURCES & CREDITS :

   NOAA       Earth
Advisory